• Join FlightAware (Why Join?)
  • Login
  • US Flag 
10:53PM EDT


 

Airport Tracker/Info


-or-


 

Live Flight TrackerFlight Track Log ✈ GJS3707 ✈ 19-Jul-2013 ✈ KORD - KBOI

Flight Track Log - Related Links

Times and Time Zones

All times are in EDT time to prevent confusion due to time zone crossing. See the GJS3707 flight status page for this flight to view local times or setup timezone preferences in your user account.

Time Position Orientation Groundspeed Altitude Reporting Facility
EDT Latitude Longitude Course Direction KTS MPH feet Rate Location/Type
11:02AM 42.0333 -87.9833 261° West 189 217 3,000  Level Chicago TRACON
11:04AM 42.0556 -88.1294 282° West 218 251 6,500 1,920 Climbing Chicago Center
11:05AM 41.9159 -88.4729 261° West  Level FlightAware Approximate
11:05AM 42.0703 -88.2225 282° West 249 287 8,600  Level Chicago Center
11:06AM 41.8990 -88.6174 261° West  Level FlightAware Approximate
11:06AM 42.0572 -88.3214 260° West 267 307 11,000  Level Chicago Center
11:07AM 41.8815 -88.7664 261° West  Level FlightAware Approximate
11:07AM 42.0453 -88.4228 261° West 274 315 13,100  Level Chicago Center
11:08AM 42.0411 -88.5264 267° West 281 323 14,900 1,440 Climbing Chicago Center
11:09AM 42.0569 -88.6642 279° West 313 360 16,100 1,080 Climbing Chicago Center
11:10AM 42.0672 -88.7947 276° West 346 398 17,200 1,020 Climbing Chicago Center
11:11AM 42.0706 -88.9283 272° West 372 428 18,300 1,200 Climbing Chicago Center
11:12AM 42.0744 -89.0922 272° West 375 432 19,700 1,200 Climbing Chicago Center
11:13AM 42.0844 -89.2372 275° West 384 442 20,900 1,140 Climbing Chicago Center
11:14AM 42.0983 -89.3825 277° West 389 448 22,100 1,140 Climbing Chicago Center
11:15AM 42.1128 -89.5289 278° West 391 450 23,300 960 Climbing Chicago Center
11:16AM 42.1272 -89.6803 277° West 402 463 24,200 780 Climbing Chicago Center
11:17AM 42.1350 -89.8311 274° West 404 465 25,000 720 Climbing Chicago Center
11:18AM 42.1433 -89.9853 274° West 412 474 25,800 780 Climbing Chicago Center
11:19AM 42.1536 -90.1717 274° West 419 482 26,700 780 Climbing Chicago Center
11:20AM 42.1622 -90.3269 274° West 418 481 27,500 660 Climbing Chicago Center
11:21AM 42.1703 -90.4869 274° West 430 495 28,100 540 Climbing Chicago Center
11:22AM 42.1775 -90.6486 274° West 434 499 28,700 660 Climbing Chicago Center
11:23AM 42.1847 -90.8106 273° West 436 502 29,500 780 Climbing Chicago Center
11:24AM 42.1939 -91.0069 274° West 439 505 30,400 780 Climbing Chicago Center
11:25AM 42.2008 -91.1689 273° West 437 503 31,200 720 Climbing Chicago Center
11:26AM 42.2072 -91.3275 273° West 430 495 32,000 780 Climbing Chicago Center
11:28AM 42.2142 -91.4856 273° West 426 490 32,900 720 Climbing Chicago Center
11:29AM 42.2200 -91.6439 273° West 425 489 33,500 480 Climbing Chicago Center
11:30AM 42.2261 -91.8019 273° West 423 487 34,000 240 Climbing Chicago Center
11:31AM 42.2333 -91.9981 273° West 432 497 34,000  Level Chicago Center
11:32AM 42.2389 -92.1667 273° West 444 511 34,000  Level Chicago Center
11:33AM 42.2453 -92.3378 273° West 454 522 34,000  Level Chicago Center
11:34AM 42.2511 -92.5058 273° West 453 521 34,000 60 Level Chicago Center
11:35AM 42.2561 -92.6722 272° West 446 513 34,200 300 Climbing Chicago Center
11:35AM 42.2650 -92.7725 277° West 447 514 34,500 540 Climbing Minneapolis Center
11:36AM 42.2800 -92.9314 277° West 433 498 35,100 660 Climbing Minneapolis Center
11:37AM 42.2933 -93.1264 275° West 435 501 35,900 420 Climbing Minneapolis Center
11:38AM 42.3044 -93.2867 275° West 435 501 36,000  Climbing Minneapolis Center
11:39AM 42.3161 -93.4436 276° West 427 491 36,000  Level Minneapolis Center
11:40AM 42.3244 -93.6000 274° West 423 487 36,000  Level Minneapolis Center
11:42AM 42.3300 -93.7567 273° West 421 484 36,000  Level Minneapolis Center
11:43AM 42.3356 -93.9417 272° West 418 481 36,000  Level Minneapolis Center
11:44AM 42.3369 -94.0961 271° West 417 480 36,000  Level Minneapolis Center
11:45AM 42.3414 -94.2564 272° West 419 482 36,000  Level Minneapolis Center
11:46AM 42.3456 -94.4142 272° West 420 483 36,000  Level Minneapolis Center
11:47AM 42.3450 -94.5703 270° West 419 482 36,000  Level Minneapolis Center
11:48AM 42.3453 -94.7286 270° West 422 486 36,000  Level Minneapolis Center
11:49AM 42.3481 -94.9172 271° West 420 483 36,000  Level Minneapolis Center
11:50AM 42.3489 -95.0744 270° West 421 484 36,000  Level Minneapolis Center
11:51AM 42.3500 -95.2325 271° West 421 484 36,000  Level Minneapolis Center
11:52AM 42.3503 -95.3931 270° West 426 490 36,000  Level Minneapolis Center
11:53AM 42.3506 -95.5533 270° West 428 493 36,000  Level Minneapolis Center
11:54AM 42.3511 -95.7156 270° West 431 496 36,000  Level Minneapolis Center
11:55AM 42.3517 -95.9039 270° West 424 488 36,000  Level Minneapolis Center
11:56AM 42.3514 -96.0642 270° West 426 490 36,000  Level Minneapolis Center
11:57AM 42.3503 -96.2269 270° West 431 496 36,000  Level Minneapolis Center
11:58AM 42.3497 -96.3867 270° West 430 495 36,000  Level Minneapolis Center
11:59AM 42.3500 -96.5461 270° West 428 493 36,000  Level Minneapolis Center
12:00PM 42.3481 -96.7381 269° West 427 491 36,000  Level Minneapolis Center
12:01PM 42.3469 -96.8972 270° West 426 490 36,000  Level Minneapolis Center
12:02PM 42.3447 -97.0547 269° West 423 487 36,000  Level Minneapolis Center
12:03PM 42.3439 -97.2156 270° West 426 490 36,000  Level Minneapolis Center
12:04PM 42.3408 -97.3772 269° West 430 495 36,000  Level Minneapolis Center
12:05PM 42.3386 -97.5675 269° West 426 490 36,000  Level Minneapolis Center
12:06PM 42.3361 -97.7258 269° West 424 488 36,000  Level Minneapolis Center
12:07PM 42.3322 -97.8811 268° West 425 489 36,000  Level Minneapolis Center
12:08PM 42.3300 -98.0422 269° West 428 493 36,000  Level Minneapolis Center
12:09PM 42.3275 -98.2017 269° West 427 491 36,000  Level Minneapolis Center
12:11PM 42.3228 -98.3931 268° West 428 493 36,000  Level Minneapolis Center
12:12PM 42.3194 -98.5519 268° West 425 489 36,000  Level Minneapolis Center
12:13PM 42.3161 -98.7133 268° West 430 495 36,000  Level Minneapolis Center
12:14PM 42.3108 -98.8719 267° West 427 491 36,000  Level Minneapolis Center
12:15PM 42.3047 -99.0942 268° West 425 489 36,000  Level Denver Center
12:16PM 42.3019 -99.1906 268° West 426 490 36,000  Level Minneapolis Center
12:17PM 42.2964 -99.3831 268° West 428 493 36,000  Level Minneapolis Center
12:18PM 42.2908 -99.5425 267° West 427 491 36,000  Level Minneapolis Center
12:19PM 42.2861 -99.7025 268° West 428 493 36,100 240 Climbing Minneapolis Center
12:20PM 42.2806 -99.8628 267° West 428 493 36,600 480 Climbing Minneapolis Center
12:21PM 42.2747 -100.0231 267° West 428 493 37,100 480 Climbing Minneapolis Center
12:22PM 42.2672 -100.1828 266° West 428 493 37,700 420 Climbing Minneapolis Center
12:23PM 42.2608 -100.3694 267° West 420 483 38,000 120 Climbing Minneapolis Center
12:24PM 42.2544 -100.5278 267° West 421 484 38,000  Level Minneapolis Center
12:25PM 42.2475 -100.6822 267° West 416 479 38,000  Level Minneapolis Center
12:26PM 42.2417 -100.8386 267° West 417 480 38,000  Level Minneapolis Center
12:27PM 42.2311 -101.0681 267° West 417 480 38,000  Level Denver Center
12:29PM 42.2242 -101.2389 267° West 412 474 38,000  Level Denver Center
12:30PM 42.2169 -101.3869 266° West 414 476 38,000  Level Denver Center
12:31PM 42.2081 -101.5597 266° West 415 478 38,000  Level Denver Center
12:32PM 42.2008 -101.7078 266° West 414 476 38,000  Level Denver Center
12:33PM 42.1931 -101.8806 267° West 415 478 38,000  Level Denver Center
12:34PM 42.1844 -102.0286 266° West 415 478 38,000  Level Denver Center
12:35PM 42.1767 -102.1517 265° West 416 479 38,000  Level Denver Center
12:36PM 42.1658 -102.3417 266° West 417 480 38,000  Level Denver Center
12:37PM 42.1575 -102.4903 266° West 416 479 38,000  Level Denver Center
12:38PM 42.1469 -102.6647 265° West 417 480 38,000  Level Denver Center
12:39PM 42.1372 -102.8383 266° West 416 479 38,000  Level Denver Center
12:40PM 42.1272 -102.9875 265° West 416 479 38,000  Level Denver Center
12:41PM 42.1161 -103.1617 265° West 417 480 38,000  Level Denver Center
12:42PM 42.1069 -103.3119 265° West 419 482 38,000  Level Denver Center
12:43PM 42.0947 -103.4886 265° West 422 486 38,000  Level Denver Center
12:45PM 42.0778 -103.7128 264° West 421 484 38,000  Level Salt Lake Center
12:45PM 42.0725 -103.8142 266° West 420 483 38,000  Level Denver Center
12:46PM 42.0619 -103.9653 265° West 422 486 38,000  Level Denver Center
12:47PM 42.0503 -104.1172 264° West 424 488 38,000  Level Denver Center
12:48PM 42.0375 -104.2950 265° West 426 490 38,000  Level Denver Center
12:49PM 42.0269 -104.4450 265° West 422 486 38,000  Level Denver Center
12:50PM 42.0131 -104.6231 264° West 426 490 38,000  Level Denver Center
12:51PM 42.0011 -104.7736 264° West 423 487 38,000  Level Denver Center
12:52PM 41.9872 -104.9525 264° West 428 493 38,000  Level Denver Center
12:53PM 41.9756 -105.1033 264° West 425 489 38,000  Level Denver Center
12:54PM 41.9617 -105.2794 264° West 424 488 38,000  Level Denver Center
12:55PM 41.9489 -105.4294 264° West 423 487 38,000  Level Denver Center
12:56PM 41.9342 -105.5769 262° West 418 481 38,000  Level Denver Center
12:57PM 41.9197 -105.7522 264° West 422 486 38,000  Level Denver Center
12:59PM 41.9081 -105.9025 264° West 424 488 38,000  Level Denver Center
01:00PM 41.8922 -106.0769 263° West 423 487 38,000  Level Denver Center
01:01PM 41.8792 -106.2275 263° West 424 488 38,000  Level Denver Center
01:02PM 41.8625 -106.4028 263° West 424 488 38,000  Level Denver Center
01:03PM 41.8469 -106.5564 262° West 426 490 38,000  Level Denver Center
01:04PM 41.8314 -106.7333 263° West 429 494 38,000  Level Denver Center
01:05PM 41.8169 -106.8817 263° West 422 486 38,000  Level Denver Center
01:06PM 41.8008 -107.0542 263° West 420 483 38,000  Level Denver Center
01:07PM 41.7853 -107.2039 262° West 424 488 38,000  Level Denver Center
01:08PM 41.7681 -107.3775 262° West 423 487 38,000  Level Denver Center
01:08PM 41.7597 -107.4511 261° West 420 483 38,000  Level Salt Lake Center
01:09PM 41.7458 -107.6003 263° West 422 486 38,000  Level Salt Lake Center
01:10PM 41.7381 -107.6736 262° West 419 482 38,000  Level Denver Center
01:11PM 41.7194 -107.8461 262° West 419 482 38,000  Level Denver Center
01:11PM 41.7114 -107.9214 262° West 422 486 38,000  Level Salt Lake Center
01:12PM 41.6939 -108.0947 262° West 423 487 38,000  Level Salt Lake Center
01:13PM 41.6853 -108.1678 261° West 421 484 38,000  Level Denver Center
01:14PM 41.6697 -108.3156 262° West 421 484 38,000  Level Denver Center
01:15PM 41.6572 -108.4153 261° West 422 486 38,000  Level Salt Lake Center
01:16PM 41.6422 -108.5636 262° West 422 486 38,000  Level Salt Lake Center
01:17PM 41.6258 -108.7117 262° West 423 487 38,000  Level Salt Lake Center
01:18PM 41.6069 -108.8839 262° West 423 487 38,000  Level Salt Lake Center
01:19PM 41.6122 -109.0567 272° West 428 493 38,000  Level Salt Lake Center
01:20PM 41.6594 -109.1942 295° West 430 495 38,000  Level Salt Lake Center
01:21PM 41.7167 -109.3522 296° West 428 493 38,000  Level Salt Lake Center
01:22PM 41.7658 -109.4875 296° West 424 488 38,000  Level Salt Lake Center
01:23PM 41.8242 -109.6461 296° West 425 489 38,000  Level Salt Lake Center
01:24PM 41.8739 -109.7819 296° West 425 489 38,000  Level Salt Lake Center
01:25PM 41.9314 -109.9414 296° West 426 490 38,000  Level Salt Lake Center
01:26PM 41.9803 -110.0775 296° West 425 489 38,000  Level Salt Lake Center
01:27PM 42.0300 -110.2142 296° West 426 490 38,000  Level Salt Lake Center
01:28PM 42.0872 -110.3731 296° West 424 488 38,000  Level Salt Lake Center
01:29PM 42.1361 -110.5108 296° West 426 490 38,000  Level Salt Lake Center
01:30PM 42.1931 -110.6722 296° West 428 493 38,000  Level Salt Lake Center
01:31PM 42.2422 -110.8097 296° West 426 490 38,000  Level Salt Lake Center
01:32PM 42.2950 -110.9625 295° West 426 490 38,000  Level Salt Lake Center
01:33PM 42.3456 -111.1058 296° West 425 489 38,000  Level Salt Lake Center
01:34PM 42.3961 -111.2522 295° West 430 495 38,000  Level Salt Lake Center
01:35PM 42.4556 -111.4242 295° West 424 488 38,000  Level Salt Lake Center
01:36PM 42.5061 -111.5711 295° West 431 496 38,000  Level Salt Lake Center
01:37PM 42.5547 -111.7153 295° West 424 488 38,000  Level Salt Lake Center
01:38PM 42.6056 -111.8597 296° West 427 491 38,000  Level Salt Lake Center
01:39PM 42.6550 -112.0056 295° West 427 491 38,000  Level Salt Lake Center
01:40PM 42.7075 -112.1622 295° West 429 494 38,000  Level Salt Lake Center
01:41PM 42.7633 -112.3264 295° West 428 493 38,000  Level Salt Lake Center
01:42PM 42.8100 -112.4675 294° West 429 494 38,000  Level Salt Lake Center
01:43PM 42.8639 -112.6339 294° West 429 494 38,000  Level Salt Lake Center
01:45PM 42.8972 -112.7814 287° West 427 491 38,000  Level Salt Lake Center
01:46PM 42.9342 -112.9547 286° West 425 489 38,000  Level Salt Lake Center
01:47PM 42.9650 -113.1036 286° West 427 491 38,000  Level Salt Lake Center
01:48PM 43.0003 -113.2794 285° West 429 494 38,000 -360 Level Salt Lake Center
01:49PM 43.0317 -113.4297 286° West 428 493 37,300 -1,140 Descending Salt Lake Center
01:50PM 43.0619 -113.5811 285° West 431 496 35,700 -1,680 Descending Salt Lake Center
01:51PM 43.0964 -113.7597 285° West 435 501 33,900 -1,680 Descending Salt Lake Center
01:52PM 43.1239 -113.9100 284° West 454 522 32,300 -1,860 Descending Salt Lake Center
01:53PM 43.1625 -114.1042 285° West 444 511 30,100 -1,980 Descending Salt Lake Center
01:54PM 43.1986 -114.2797 286° West 454 522 28,300 -1,800 Descending Salt Lake Center
01:55PM 43.2297 -114.4408 285° West 456 525 26,500 -1,800 Descending Salt Lake Center
01:56PM 43.2614 -114.6036 285° West 462 532 24,700 -1,920 Descending Salt Lake Center
01:57PM 43.2975 -114.7958 285° West 463 533 22,600 -1,860 Descending Salt Lake Center
01:58PM 43.3269 -114.9503 285° West 436 502 20,900 -1,860 Descending Salt Lake Center
01:59PM 43.3600 -115.1269 284° West 419 482 18,800 -1,920 Descending Salt Lake Center
02:00PM 43.3892 -115.2819 285° West 407 468 17,000 -1,800 Descending Salt Lake Center
02:01PM 43.4164 -115.4356 284° West 396 456 15,200 -1,500 Descending Salt Lake Center
02:02PM 43.4419 -115.5758 284° West 395 455 14,000 -1,440 Descending Salt Lake Center
02:03PM 43.4747 -115.7203 287° West 380 437 12,300 -1,680 Descending Salt Lake Center
02:04PM 43.5097 -115.8522 290° West 354 407 10,600 -1,260 Descending Salt Lake Center
02:05PM 43.5428 -115.9639 292° West 302 348 9,800 -780 Descending Salt Lake Center
02:06PM 43.5775 -116.0681 295° West 287 330 9,000 -840 Descending Salt Lake Center
02:07PM 43.6092 -116.1697 293° West 278 320 8,100 -1,020 Descending Salt Lake Center
02:08PM 43.6369 -116.2578 294° West 242 278 7,000 -1,080 Descending Salt Lake Center